Time;durP1;ratioP1;P1;durP2;ratioP2;P2;SDS_P1;SDS_P2;PMS_P1;PMS_P2;Temp;Humidity;BMP_temperature;BMP_pressure;BME280_temperature;BME280_humidity;BME280_pressure;Samples;Min_cycle;Max_cycle;Signal;HPM_P1;HPM_P2
2022/10/25 00:01:25;;;;;;;9.45;1.33;;;13.90;99.90;;;;;;5096632;28;20031;-70
2022/10/25 00:03:51;;;;;;;9.02;1.63;;;13.90;99.90;;;;;;5096693;28;20020;-69
2022/10/25 00:06:17;;;;;;;6.72;1.55;;;13.90;99.90;;;;;;5097566;28;20027;-71
2022/10/25 00:08:46;;;;;;;11.65;1.85;;;13.80;99.90;;;;;;5079805;28;20028;-71
2022/10/25 00:11:27;;;;;;;7.80;1.70;;;13.80;99.90;;;;;;5097488;28;20114;-72
2022/10/25 00:13:55;;;;;;;6.55;1.30;;;13.80;99.90;;;;;;5095659;28;20020;-71
2022/10/25 00:16:28;;;;;;;6.70;1.35;;;13.80;99.90;;;;;;5096473;28;20028;-69
2022/10/25 00:18:54;;;;;;;12.82;1.90;;;13.80;99.90;;;;;;5097154;28;20085;-71
2022/10/25 00:21:20;;;;;;;6.68;1.40;;;13.80;99.90;;;;;;5096264;28;20048;-71
2022/10/25 00:23:46;;;;;;;11.20;1.70;;;13.80;99.90;;;;;;5097039;28;20020;-71
2022/10/25 00:26:12;;;;;;;11.02;1.50;;;13.80;99.90;;;;;;5096385;28;20409;-71
2022/10/25 00:28:39;;;;;;;12.60;1.80;;;13.80;99.90;;;;;;5097079;28;20119;-69
2022/10/25 00:31:08;;;;;;;8.05;1.60;;;13.80;99.90;;;;;;5097084;28;20148;-70
2022/10/25 00:33:35;;;;;;;9.25;1.73;;;13.90;99.90;;;;;;5096562;28;20032;-71
2022/10/25 00:36:05;;;;;;;7.10;1.33;;;13.90;99.90;;;;;;5096251;28;20028;-71
2022/10/25 00:38:31;;;;;;;11.07;1.30;;;13.90;99.90;;;;;;5096241;28;20036;-70
2022/10/25 00:40:58;;;;;;;9.65;1.50;;;14.00;99.90;;;;;;5096897;28;20395;-71
2022/10/25 00:43:48;;;;;;;8.63;1.83;;;14.00;99.90;;;;;;5096178;28;20024;-70
2022/10/25 00:46:22;;;;;;;6.38;1.63;;;14.00;99.90;;;;;;5096291;28;20306;-69
2022/10/25 00:49:14;;;;;;;7.95;1.48;;;14.10;99.90;;;;;;5096001;28;20063;-70
2022/10/25 00:51:49;;;;;;;6.47;1.40;;;14.10;99.90;;;;;;5096817;28;20040;-69
2022/10/25 00:54:20;;;;;;;10.98;1.63;;;14.00;99.90;;;;;;5096111;28;20059;-69
2022/10/25 00:56:51;;;;;;;10.27;1.23;;;14.00;99.90;;;;;;5096683;28;20052;-69
2022/10/25 00:59:20;;;;;;;8.38;1.33;;;14.10;99.90;;;;;;5096075;28;20119;-70
2022/10/25 01:01:52;;;;;;;10.27;1.40;;;14.10;99.90;;;;;;5096224;28;20333;-69
2022/10/25 01:04:20;;;;;;;10.18;1.50;;;14.10;99.90;;;;;;5079184;28;20028;-67
2022/10/25 01:06:49;;;;;;;8.32;1.33;;;14.10;99.90;;;;;;5096705;28;20269;-68
2022/10/25 01:09:22;;;;;;;6.65;1.48;;;14.10;99.90;;;;;;5096641;28;20061;-69
2022/10/25 01:11:48;;;;;;;6.43;1.40;;;14.00;99.90;;;;;;5096817;28;20032;-70
2022/10/25 01:14:15;;;;;;;6.53;1.70;;;14.00;99.90;;;;;;5079019;28;20131;-71
2022/10/25 01:17:08;;;;;;;6.50;1.50;;;14.00;99.90;;;;;;5095959;28;20028;-70
2022/10/25 01:19:41;;;;;;;11.35;1.90;;;14.00;99.90;;;;;;5095695;28;20061;-71
2022/10/25 01:22:37;;;;;;;7.13;1.38;;;14.00;99.90;;;;;;5079023;28;20028;-70
2022/10/25 01:25:21;;;;;;;6.25;1.55;;;14.00;99.90;;;;;;5096149;28;20097;-70
2022/10/25 01:27:59;;;;;;;4.00;1.05;;;14.00;99.90;;;;;;5100302;28;20037;-70
2022/10/25 01:30:49;;;;;;;5.72;1.55;;;13.90;99.90;;;;;;5100431;28;20108;-69
2022/10/25 01:33:38;;;;;;;10.02;1.70;;;14.00;99.90;;;;;;5099774;28;20443;-71
2022/10/25 01:36:27;;;;;;;6.47;1.20;;;13.90;99.90;;;;;;5100344;28;20307;-71
2022/10/25 01:39:12;;;;;;;6.45;1.17;;;13.90;99.90;;;;;;5099678;28;20291;-70
2022/10/25 01:41:59;;;;;;;5.20;0.98;;;13.90;99.90;;;;;;5099497;28;20050;-70
2022/10/25 01:44:45;;;;;;;5.72;1.33;;;13.80;99.90;;;;;;5100157;28;20024;-71
2022/10/25 01:47:23;;;;;;;6.22;0.98;;;13.80;99.90;;;;;;5100573;28;20042;-71
2022/10/25 01:50:28;;;;;;;7.50;1.38;;;13.80;99.90;;;;;;5100299;28;20399;-71
2022/10/25 01:52:56;;;;;;;9.25;1.23;;;13.80;99.90;;;;;;5098388;28;20361;-71
2022/10/25 01:55:30;;;;;;;9.45;1.58;;;13.80;99.90;;;;;;5099733;28;20126;-70
2022/10/25 01:58:11;;;;;;;5.97;1.80;;;13.80;99.90;;;;;;5099747;28;20365;-71
2022/10/25 02:00:58;;;;;;;8.00;1.77;;;13.80;99.90;;;;;;5099848;28;20024;-69
2022/10/25 02:03:49;;;;;;;5.65;1.27;;;13.80;99.90;;;;;;5099016;28;20077;-71
2022/10/25 02:06:28;;;;;;;5.20;1.00;;;13.70;99.90;;;;;;5100103;28;20035;-70
2022/10/25 02:09:21;;;;;;;6.75;1.40;;;13.80;99.90;;;;;;5082038;28;20024;-72
2022/10/25 02:11:49;;;;;;;;;;;13.90;99.90;;;;;;5100686;28;20024;-70
2022/10/25 02:14:24;;;;;;;8.75;1.50;;;13.80;99.90;;;;;;5099596;28;20172;-71
2022/10/25 02:16:59;;;;;;;8.30;1.40;;;13.80;99.90;;;;;;5099565;28;20125;-70
2022/10/25 02:19:31;;;;;;;9.27;1.50;;;13.80;99.90;;;;;;5099462;28;20050;-70
2022/10/25 02:22:00;;;;;;;5.70;1.35;;;13.90;99.90;;;;;;5098659;28;20070;-70
2022/10/25 02:24:29;;;;;;;6.38;1.17;;;13.90;99.90;;;;;;5099327;28;20028;-70
2022/10/25 02:26:56;;;;;;;4.43;1.15;;;13.80;99.90;;;;;;5098600;28;20024;-70
2022/10/25 02:29:26;;;;;;;4.78;1.10;;;13.80;99.90;;;;;;5099144;28;20295;-70
2022/10/25 02:31:52;;;;;;;9.95;1.63;;;13.80;99.90;;;;;;5099240;28;20059;-70
2022/10/25 02:34:18;;;;;;;5.68;1.35;;;13.80;99.90;;;;;;5099067;28;20051;-70
2022/10/25 02:36:48;;;;;;;6.32;1.58;;;13.80;99.90;;;;;;5080610;28;20044;-70
2022/10/25 02:39:14;;;;;;;10.00;1.63;;;13.80;99.90;;;;;;5098869;28;20064;-72
2022/10/25 02:41:40;;;;;;;3.88;1.05;;;13.80;99.90;;;;;;5098817;28;20028;-71
2022/10/25 02:44:06;;;;;;;9.05;1.58;;;13.80;99.90;;;;;;5098685;28;20024;-70
2022/10/25 02:46:32;;;;;;;4.18;1.25;;;13.70;99.90;;;;;;5098150;28;20349;-70
2022/10/25 02:48:58;;;;;;;6.32;1.55;;;13.70;99.90;;;;;;5098350;28;20113;-71
2022/10/25 02:51:24;;;;;;;4.47;1.35;;;13.70;99.90;;;;;;5099046;28;20153;-71
2022/10/25 02:53:50;;;;;;;7.30;1.42;;;13.70;99.90;;;;;;5097964;28;20024;-70
2022/10/25 02:56:19;;;;;;;4.70;1.27;;;13.80;99.90;;;;;;5097811;28;20062;-72
2022/10/25 02:58:46;;;;;;;5.38;1.30;;;13.70;99.90;;;;;;5098570;28;20111;-71
2022/10/25 03:01:14;;;;;;;3.92;1.40;;;13.70;99.90;;;;;;5097868;28;20399;-71
2022/10/25 03:03:44;;;;;;;5.45;1.42;;;13.70;99.90;;;;;;5097724;28;20041;-70
2022/10/25 03:06:10;;;;;;;7.00;1.42;;;13.60;99.90;;;;;;5098045;28;20035;-71
2022/10/25 03:08:37;;;;;;;5.82;1.50;;;13.60;99.90;;;;;;5098474;28;20097;-71
2022/10/25 03:11:04;;;;;;;7.00;1.50;;;13.60;99.90;;;;;;5098367;28;20020;-72
2022/10/25 03:13:30;;;;;;;8.90;1.58;;;13.60;99.90;;;;;;5097693;28;20028;-70
2022/10/25 03:15:56;;;;;;;7.22;1.35;;;13.50;99.90;;;;;;5098351;28;20028;-71
2022/10/25 03:18:22;;;;;;;5.90;1.33;;;13.50;99.90;;;;;;5080626;28;20043;-71
2022/10/25 03:20:48;;;;;;;9.65;1.95;;;13.50;99.90;;;;;;5080485;28;20058;-71
2022/10/25 03:23:14;;;;;;;7.82;1.67;;;13.50;99.90;;;;;;5098114;28;20103;-70
2022/10/25 03:25:40;;;;;;;7.90;1.70;;;13.50;99.90;;;;;;5080673;28;20040;-70
2022/10/25 03:28:06;;;;;;;6.88;1.63;;;13.40;99.90;;;;;;5097339;28;20032;-70
2022/10/25 03:30:35;;;;;;;7.20;1.70;;;13.40;99.90;;;;;;5097195;28;20032;-70
2022/10/25 03:33:01;;;;;;;8.15;2.00;;;13.30;99.90;;;;;;5097931;28;20024;-71
2022/10/25 03:35:27;;;;;;;9.68;1.58;;;13.40;99.90;;;;;;5097214;28;20036;-70
2022/10/25 03:37:56;;;;;;;7.10;1.80;;;13.40;99.90;;;;;;5080173;28;20118;-70
2022/10/25 03:40:23;;;;;;;5.05;1.50;;;13.40;99.90;;;;;;5096949;28;20032;-70
2022/10/25 03:42:48;;;;;;;7.43;2.15;;;13.40;99.90;;;;;;5096993;28;20303;-71
2022/10/25 03:45:14;;;;;;;6.70;1.88;;;13.40;99.90;;;;;;5063585;28;20035;-70
2022/10/25 03:47:40;;;;;;;7.40;1.70;;;13.40;99.90;;;;;;5096811;28;20391;-70
2022/10/25 03:50:07;;;;;;;5.57;1.70;;;13.40;99.90;;;;;;5097627;28;20332;-70
2022/10/25 03:52:35;;;;;;;9.10;1.50;;;13.50;99.90;;;;;;5097528;28;20031;-70
2022/10/25 03:55:02;;;;;;;5.13;1.92;;;13.50;99.90;;;;;;5096883;28;20042;-71
2022/10/25 03:57:28;;;;;;;9.10;1.52;;;13.50;99.90;;;;;;5096568;28;20063;-71
2022/10/25 03:59:54;;;;;;;9.20;1.50;;;13.40;99.90;;;;;;5096774;28;20031;-70
2022/10/25 04:02:19;;;;;;;7.60;1.88;;;13.30;99.90;;;;;;5096701;28;20024;-70
2022/10/25 04:04:45;;;;;;;8.98;1.52;;;13.30;99.90;;;;;;5063063;28;20281;-71
2022/10/25 04:07:11;;;;;;;6.72;1.60;;;13.30;99.90;;;;;;5096769;28;20035;-71
2022/10/25 04:09:37;;;;;;;9.63;1.90;;;13.30;99.90;;;;;;5079800;28;20130;-71
2022/10/25 04:12:03;;;;;;;6.00;1.70;;;13.20;99.90;;;;;;5096724;28;20395;-71
2022/10/25 04:14:28;;;;;;;5.32;1.83;;;13.20;99.90;;;;;;5079719;28;20108;-72
2022/10/25 04:16:54;;;;;;;5.47;1.95;;;13.20;99.90;;;;;;5096521;28;20059;-71
2022/10/25 04:19:20;;;;;;;6.55;1.70;;;13.20;99.90;;;;;;5079755;28;20040;-71
2022/10/25 04:21:46;;;;;;;8.65;1.80;;;13.20;99.90;;;;;;5097191;28;20043;-71
2022/10/25 04:24:12;;;;;;;6.93;1.92;;;13.20;99.90;;;;;;5096380;28;20035;-70
2022/10/25 04:26:37;;;;;;;5.93;1.70;;;13.10;99.90;;;;;;5096997;28;20395;-71
2022/10/25 04:29:04;;;;;;;9.45;2.10;;;13.10;99.90;;;;;;5079591;28;20111;-71
2022/10/25 04:31:31;;;;;;;8.20;1.92;;;13.10;99.90;;;;;;5097673;28;20036;-70
2022/10/25 04:33:57;;;;;;;7.18;1.88;;;13.10;99.90;;;;;;5096384;28;20228;-71
2022/10/25 04:36:26;;;;;;;9.07;2.30;;;13.00;99.90;;;;;;5096448;28;20125;-70
2022/10/25 04:38:52;;;;;;;10.93;2.22;;;13.10;99.90;;;;;;5063187;28;20126;-71
2022/10/25 04:41:19;;;;;;;8.93;2.40;;;13.10;99.90;;;;;;5097010;28;20185;-71
2022/10/25 04:43:46;;;;;;;7.78;2.30;;;13.20;99.90;;;;;;5079390;28;20125;-72
2022/10/25 04:46:13;;;;;;;8.48;2.58;;;13.20;99.90;;;;;;5096267;28;20028;-72
2022/10/25 04:48:43;;;;;;;7.00;2.28;;;13.20;99.90;;;;;;5096232;28;20137;-71
2022/10/25 04:51:14;;;;;;;9.40;2.50;;;13.30;99.90;;;;;;5096948;28;20032;-71
2022/10/25 04:53:39;;;;;;;5.65;2.50;;;13.30;99.90;;;;;;5096746;28;20039;-71
2022/10/25 04:56:11;;;;;;;11.25;2.67;;;13.40;99.90;;;;;;5097207;28;20059;-70
2022/10/25 04:58:37;;;;;;;6.10;2.22;;;13.40;99.90;;;;;;5096073;28;20036;-72
2022/10/25 05:01:09;;;;;;;6.38;2.97;;;13.30;99.90;;;;;;5099337;28;20330;-70
2022/10/25 05:03:35;;;;;;;7.72;2.90;;;13.30;99.90;;;;;;5100344;28;20092;-72
2022/10/25 05:06:21;;;;;;;7.55;3.17;;;13.40;99.90;;;;;;5100173;28;20112;-71
2022/10/25 05:08:49;;;;;;;12.55;3.72;;;13.40;99.90;;;;;;5100152;28;20016;-72
2022/10/25 05:11:18;;;;;;;7.07;3.20;;;13.40;99.90;;;;;;5100651;28;20043;-72
2022/10/25 05:13:44;;;;;;;15.82;4.22;;;13.40;99.90;;;;;;5099822;28;20038;-72
2022/10/25 05:16:23;;;;;;;11.40;4.00;;;13.40;99.90;;;;;;5100727;28;20032;-70
2022/10/25 05:18:52;;;;;;;10.95;4.22;;;13.30;99.90;;;;;;5100637;28;20050;-72
2022/10/25 05:21:19;;;;;;;11.55;4.35;;;13.20;99.90;;;;;;5100414;28;20024;-71
2022/10/25 05:23:45;;;;;;;11.98;4.68;;;13.20;99.90;;;;;;5099622;28;20090;-71
2022/10/25 05:26:15;;;;;;;8.93;4.60;;;13.20;99.90;;;;;;5100319;28;20070;-72
2022/10/25 05:28:42;;;;;;;13.23;4.65;;;13.20;99.90;;;;;;5099631;28;20104;-71
2022/10/25 05:31:16;;;;;;;16.40;5.50;;;13.10;99.90;;;;;;5099682;28;20067;-70
2022/10/25 05:33:46;;;;;;;12.57;5.13;;;13.20;99.90;;;;;;5100281;28;20310;-71
2022/10/25 05:36:13;;;;;;;9.20;4.47;;;13.20;99.90;;;;;;5099622;28;20035;-71
2022/10/25 05:38:39;;;;;;;9.98;4.80;;;13.30;99.90;;;;;;5100146;28;20075;-71
2022/10/25 05:41:06;;;;;;;12.07;5.45;;;13.30;99.90;;;;;;5099216;28;20425;-72
2022/10/25 05:43:32;;;;;;;12.10;5.13;;;13.40;99.90;;;;;;5099295;28;20039;-72
2022/10/25 05:46:19;;;;;;;11.18;5.15;;;13.40;99.90;;;;;;5099979;28;20109;-73
2022/10/25 05:48:46;;;;;;;14.88;5.85;;;13.40;99.90;;;;;;5082380;28;20060;-71
2022/10/25 05:51:20;;;;;;;13.35;5.22;;;13.40;99.90;;;;;;5082525;28;20047;-70
2022/10/25 05:53:49;;;;;;;13.75;5.22;;;13.40;99.90;;;;;;5099124;28;20092;-70
2022/10/25 05:56:15;;;;;;;15.30;5.18;;;13.40;99.90;;;;;;5099732;28;20040;-72
2022/10/25 05:58:41;;;;;;;11.73;4.97;;;13.40;99.90;;;;;;5099012;28;20028;-73
2022/10/25 06:01:09;;;;;;;11.10;5.30;;;13.30;99.90;;;;;;5099534;28;20159;-71
2022/10/25 06:03:36;;;;;;;7.70;5.20;;;13.20;99.90;;;;;;5099673;28;20294;-71
2022/10/25 06:06:04;;;;;;;15.90;5.90;;;13.20;99.90;;;;;;5099649;28;20111;-72
2022/10/25 06:08:30;;;;;;;14.32;5.57;;;13.20;99.90;;;;;;5098853;28;20028;-71
2022/10/25 06:11:01;;;;;;;11.80;5.93;;;13.20;99.90;;;;;;5081451;28;20060;-71
2022/10/25 06:13:27;;;;;;;14.45;6.25;;;13.30;99.90;;;;;;5098955;28;20294;-71
2022/10/25 06:15:52;;;;;;;18.20;6.32;;;13.30;99.90;;;;;;5099514;28;20110;-71
2022/10/25 06:18:18;;;;;;;10.40;6.10;;;13.30;99.90;;;;;;5099122;28;20046;-72
2022/10/25 06:20:44;;;;;;;15.30;6.68;;;13.30;99.90;;;;;;5064959;28;20035;-72
2022/10/25 06:23:10;;;;;;;16.27;6.25;;;13.30;99.90;;;;;;5098596;28;20035;-69
2022/10/25 06:25:35;;;;;;;14.88;6.30;;;13.20;99.90;;;;;;5099908;28;20028;-71
2022/10/25 06:28:01;;;;;;;11.43;6.18;;;13.10;99.90;;;;;;5098603;28;20093;-70
2022/10/25 06:30:27;;;;;;;13.93;6.70;;;13.10;99.90;;;;;;5098384;28;20043;-70
2022/10/25 06:32:53;;;;;;;10.80;5.90;;;13.10;99.90;;;;;;5098327;28;20074;-69
2022/10/25 06:35:19;;;;;;;17.52;6.93;;;13.10;99.90;;;;;;5098960;28;20444;-73
2022/10/25 06:37:46;;;;;;;15.32;6.68;;;13.20;99.90;;;;;;5098785;28;20067;-73
2022/10/25 06:40:11;;;;;;;13.77;6.95;;;13.20;99.90;;;;;;5097999;28;20076;-71
2022/10/25 06:42:37;;;;;;;15.45;6.75;;;13.30;99.90;;;;;;5097991;28;20303;-69
2022/10/25 06:45:03;;;;;;;12.40;6.70;;;13.30;99.90;;;;;;5098836;28;20028;-71
2022/10/25 06:47:29;;;;;;;15.98;7.25;;;13.30;99.90;;;;;;5097975;28;20043;-68
2022/10/25 06:49:55;;;;;;;14.77;6.38;;;13.40;99.90;;;;;;5098027;28;20028;-72
2022/10/25 06:52:21;;;;;;;16.63;7.13;;;13.40;99.90;;;;;;5097975;28;20044;-72
2022/10/25 06:54:46;;;;;;;16.83;6.03;;;13.40;99.90;;;;;;5081153;28;20043;-71
2022/10/25 06:57:12;;;;;;;15.07;6.40;;;13.40;99.90;;;;;;5098548;28;20109;-71
2022/10/25 06:59:38;;;;;;;18.05;6.72;;;13.40;99.90;;;;;;5098509;28;20032;-72
2022/10/25 07:02:04;;;;;;;21.02;6.50;;;13.40;99.90;;;;;;5081158;28;20035;-72
2022/10/25 07:04:31;;;;;;;20.00;6.57;;;13.50;99.90;;;;;;5080958;28;20028;-71
2022/10/25 07:06:57;;;;;;;17.45;6.88;;;13.50;99.90;;;;;;5097959;28;20032;-73
2022/10/25 07:09:27;;;;;;;13.90;5.55;;;13.50;99.90;;;;;;5080679;28;20028;-71
2022/10/25 07:11:53;;;;;;;15.70;5.90;;;13.50;99.90;;;;;;5098498;28;20032;-73
2022/10/25 07:14:20;;;;;;;13.05;4.68;;;13.50;99.90;;;;;;5098215;28;20043;-72
2022/10/25 07:16:45;;;;;;;10.65;4.35;;;13.60;99.90;;;;;;5080741;28;20050;-72
2022/10/25 07:19:11;;;;;;;10.20;4.25;;;13.50;99.90;;;;;;5080951;28;20103;-72
2022/10/25 07:21:37;;;;;;;11.55;4.90;;;13.50;99.90;;;;;;5098222;28;20139;-71
2022/10/25 07:24:03;;;;;;;11.45;4.10;;;13.50;99.90;;;;;;5098235;28;20059;-72
2022/10/25 07:26:31;;;;;;;12.88;4.10;;;13.50;99.90;;;;;;5080909;28;20334;-72
2022/10/25 07:28:58;;;;;;;11.18;3.78;;;13.50;99.90;;;;;;5098155;28;20052;-72
2022/10/25 07:31:30;;;;;;;17.33;4.32;;;13.50;99.90;;;;;;5097272;28;20024;-71
2022/10/25 07:33:58;;;;;;;14.52;4.25;;;13.60;99.90;;;;;;5097280;28;20225;-71
2022/10/25 07:36:25;;;;;;;8.85;3.38;;;13.70;99.90;;;;;;5097310;28;20051;-72
2022/10/25 07:38:51;;;;;;;12.63;3.80;;;13.70;99.90;;;;;;5097229;28;20024;-72
2022/10/25 07:41:16;;;;;;;11.50;3.10;;;13.70;99.90;;;;;;5097062;28;20047;-72
2022/10/25 07:43:42;;;;;;;9.80;2.88;;;13.70;99.90;;;;;;5096965;28;20032;-71
2022/10/25 07:46:08;;;;;;;9.90;2.88;;;13.70;99.90;;;;;;5096900;28;20411;-71
2022/10/25 07:48:34;;;;;;;15.00;2.60;;;13.70;99.90;;;;;;5096903;28;20403;-71
2022/10/25 07:51:10;;;;;;;7.80;2.40;;;13.70;99.90;;;;;;5096868;28;20024;-71
2022/10/25 07:53:35;;;;;;;13.40;2.80;;;13.70;99.90;;;;;;5097505;28;20032;-71
2022/10/25 07:56:02;;;;;;;14.35;2.75;;;13.70;99.90;;;;;;5096636;28;20294;-72
2022/10/25 07:58:28;;;;;;;13.07;2.67;;;13.70;99.90;;;;;;5096910;28;20044;-71
2022/10/25 08:01:03;;;;;;;8.20;2.75;;;13.70;99.90;;;;;;5079672;28;20043;-71
2022/10/25 08:03:29;;;;;;;9.13;2.67;;;13.80;99.90;;;;;;5097475;28;20039;-73
2022/10/25 08:05:56;;;;;;;11.95;2.25;;;13.80;99.90;;;;;;5097008;28;20044;-71
2022/10/25 08:08:23;;;;;;;7.70;1.92;;;13.90;99.90;;;;;;5098023;28;20137;-72
2022/10/25 08:10:49;;;;;;;7.32;1.90;;;13.90;99.90;;;;;;5097376;28;20101;-71
2022/10/25 08:13:15;;;;;;;8.52;2.10;;;14.00;99.90;;;;;;5097427;28;20410;-73
2022/10/25 08:15:41;;;;;;;11.50;2.25;;;14.00;99.90;;;;;;5097322;28;20040;-70
2022/10/25 08:18:08;;;;;;;8.60;2.10;;;14.00;99.90;;;;;;5080443;28;20346;-71
2022/10/25 08:20:34;;;;;;;10.25;2.20;;;14.10;99.90;;;;;;5096334;28;20395;-72
2022/10/25 08:23:00;;;;;;;6.93;1.75;;;14.10;99.90;;;;;;5097260;28;20024;-72
2022/10/25 08:25:27;;;;;;;7.72;1.90;;;14.10;99.90;;;;;;5096455;28;20281;-72
2022/10/25 08:27:53;;;;;;;9.63;2.10;;;14.10;99.90;;;;;;5079601;28;20043;-73
2022/10/25 08:30:19;;;;;;;9.75;2.10;;;14.30;99.90;;;;;;5097080;28;20043;-71
2022/10/25 08:32:45;;;;;;;9.07;2.17;;;14.30;99.90;;;;;;5079636;28;20040;-70
2022/10/25 08:35:10;;;;;;;10.77;2.30;;;14.50;99.90;;;;;;5095777;28;20090;-72
2022/10/25 08:37:36;;;;;;;10.02;2.15;;;14.50;99.90;;;;;;5079413;28;20043;-71
2022/10/25 08:40:02;;;;;;;11.70;2.47;;;14.30;99.90;;;;;;5096130;28;20047;-71
2022/10/25 08:42:42;;;;;;;10.20;2.22;;;14.40;99.90;;;;;;5062630;28;20298;-72
2022/10/25 08:45:24;;;;;;;9.88;2.45;;;14.40;99.90;;;;;;5096232;28;20303;-71
2022/10/25 08:47:53;;;;;;;8.80;2.20;;;14.40;99.90;;;;;;5096889;28;20059;-71
2022/10/25 08:50:27;;;;;;;10.98;2.70;;;14.40;99.90;;;;;;5096783;28;20182;-71
2022/10/25 08:52:58;;;;;;;7.90;2.42;;;14.60;99.90;;;;;;5096850;28;20046;-73
2022/10/25 08:55:42;;;;;;;9.00;2.78;;;14.70;99.90;;;;;;5097326;28;20381;-71
2022/10/25 08:58:19;;;;;;;7.57;2.63;;;14.60;99.90;;;;;;5095996;28;20063;-72
2022/10/25 09:00:47;;;;;;;5.82;2.17;;;14.70;99.90;;;;;;5096897;28;20292;-73
2022/10/25 09:03:24;;;;;;;7.88;2.17;;;14.80;99.90;;;;;;5096045;28;20085;-72
2022/10/25 09:06:06;;;;;;;9.73;2.50;;;15.00;99.90;;;;;;5095828;28;20039;-72
2022/10/25 09:09:03;;;;;;;6.03;2.20;;;15.10;99.90;;;;;;5096706;28;20035;-72
2022/10/25 09:11:47;;;;;;;10.43;2.53;;;15.20;99.90;;;;;;5097000;28;20024;-71
2022/10/25 09:14:30;;;;;;;9.18;2.40;;;15.30;99.90;;;;;;5097279;28;20334;-71
2022/10/25 09:17:11;;;;;;;8.90;2.90;;;15.30;99.90;;;;;;5096846;28;20032;-71
2022/10/25 09:20:01;;;;;;;8.10;2.65;;;15.10;99.90;;;;;;5096672;28;20024;-69
2022/10/25 09:22:30;;;;;;;8.80;2.60;;;15.10;99.90;;;;;;5096634;28;20042;-70
2022/10/25 09:25:12;;;;;;;8.23;2.80;;;15.20;99.90;;;;;;5095790;28;20031;-69
2022/10/25 09:27:50;;;;;;;9.48;2.40;;;15.20;99.90;;;;;;5097117;28;20333;-69
2022/10/25 09:30:16;;;;;;;8.30;2.60;;;15.20;99.90;;;;;;5096779;28;20399;-70
2022/10/25 09:33:00;;;;;;;10.60;2.88;;;15.00;99.90;;;;;;5095686;28;20032;-68
2022/10/25 09:35:39;;;;;;;7.47;2.35;;;14.90;99.90;;;;;;5095760;28;20032;-68
2022/10/25 09:38:35;;;;;;;10.38;2.60;;;14.80;99.90;;;;;;5095778;28;20324;-71
2022/10/25 09:41:15;;;;;;;9.23;2.20;;;14.70;99.90;;;;;;5096751;28;20036;-71
2022/10/25 09:43:45;;;;;;;8.10;2.58;;;15.00;99.90;;;;;;5096396;28;20028;-72
2022/10/25 09:46:17;;;;;;;8.65;2.25;;;15.20;99.90;;;;;;5096771;28;20028;-72
2022/10/25 09:49:15;;;;;;;9.40;2.13;;;15.50;99.90;;;;;;5099424;28;20299;-72
2022/10/25 09:52:08;;;;;;;8.93;2.35;;;15.50;99.90;;;;;;5100041;28;20353;-72
2022/10/25 09:55:04;;;;;;;8.25;2.17;;;15.80;99.90;;;;;;5099835;28;20103;-72
2022/10/25 09:57:29;;;;;;;11.30;2.15;;;15.80;99.90;;;;;;5082267;28;20048;-70
2022/10/25 09:59:55;;;;;;;6.25;2.10;;;15.80;99.90;;;;;;5082313;28;20042;-71
2022/10/25 10:02:23;;;;;;;7.13;1.63;;;15.70;99.90;;;;;;5099041;28;20405;-72
2022/10/25 10:04:50;;;;;;;10.98;2.20;;;16.20;99.90;;;;;;5098933;28;20061;-72
2022/10/25 10:07:28;;;;;;;4.75;1.80;;;16.20;99.90;;;;;;5099611;28;20028;-70
2022/10/25 10:09:56;;;;;;;4.85;1.50;;;16.40;99.90;;;;;;5099017;28;20040;-70
2022/10/25 10:12:29;;;;;;;6.25;1.27;;;16.80;99.90;;;;;;5099370;28;20410;-70
2022/10/25 10:15:03;;;;;;;5.75;1.40;;;16.90;99.90;;;;;;5099350;28;20032;-72
2022/10/25 10:17:29;;;;;;;4.85;1.20;;;16.90;99.90;;;;;;5098610;28;20299;-70
2022/10/25 10:20:16;;;;;;;7.25;1.40;;;16.90;99.90;;;;;;5098521;28;20036;-70
2022/10/25 10:22:50;;;;;;;6.43;1.80;;;17.10;99.90;;;;;;5099380;28;20038;-73
2022/10/25 10:25:21;;;;;;;6.50;1.20;;;17.30;99.90;;;;;;5099251;28;20115;-72
2022/10/25 10:27:49;;;;;;;5.97;0.98;;;17.50;99.90;;;;;;5098493;28;20034;-71
2022/10/25 10:30:30;;;;;;;7.50;1.45;;;17.80;99.90;;;;;;5099035;28;20299;-72
2022/10/25 10:32:59;;;;;;;8.70;1.17;;;18.00;99.90;;;;;;5098942;28;20032;-72
2022/10/25 10:35:27;;;;;;;6.40;1.00;;;18.50;99.90;;;;;;5098365;28;20060;-72
2022/10/25 10:38:22;;;;;;;4.50;1.35;;;18.70;99.90;;;;;;5099063;28;20035;-72
2022/10/25 10:41:12;;;;;;;5.43;1.38;;;18.40;99.90;;;;;;5098163;28;20381;-71
2022/10/25 10:43:38;;;;;;;7.63;1.15;;;18.00;99.90;;;;;;5099034;28;20103;-72
2022/10/25 10:46:10;;;;;;;6.03;0.90;;;18.20;99.90;;;;;;5081336;28;20032;-70
2022/10/25 10:48:40;;;;;;;4.70;1.20;;;18.40;99.90;;;;;;5098990;28;20145;-70
2022/10/25 10:51:06;;;;;;;4.75;1.35;;;19.10;99.90;;;;;;5098717;28;20036;-71
2022/10/25 10:53:33;;;;;;;6.97;1.30;;;19.60;99.90;;;;;;5081115;28;20028;-70
2022/10/25 10:56:04;;;;;;;6.43;1.20;;;20.00;99.90;;;;;;5098435;28;20036;-70
2022/10/25 10:58:31;;;;;;;7.90;1.40;;;20.10;99.90;;;;;;5097070;28;20035;-72
2022/10/25 11:01:04;;;;;;;8.68;1.27;;;19.30;99.90;;;;;;5080828;28;20345;-72
2022/10/25 11:03:39;;;;;;;6.70;1.60;;;18.70;99.90;;;;;;5098487;28;20016;-69
2022/10/25 11:06:28;;;;;;;6.80;1.17;;;18.90;99.90;;;;;;5097592;28;20126;-71
2022/10/25 11:09:11;;;;;;;6.47;1.27;;;19.20;99.90;;;;;;5097589;28;20036;-71
2022/10/25 11:11:38;;;;;;;6.00;1.02;;;19.50;99.90;;;;;;5098046;28;20051;-71
2022/10/25 11:14:15;;;;;;;4.80;1.30;;;19.40;99.90;;;;;;5097536;28;20050;-71
2022/10/25 11:16:43;;;;;;;7.50;1.45;;;19.60;99.90;;;;;;5097515;28;20059;-71
2022/10/25 11:19:54;;;;;;;4.45;1.23;;;19.90;99.90;;;;;;5098216;28;20157;-72
2022/10/25 11:22:49;;;;;;;4.53;1.10;;;19.10;99.90;;;;;;5016805;28;20054;-69
2022/10/25 11:25:37;;;;;;;6.90;1.23;;;18.70;99.90;;;;;;5016880;28;20120;-70
2022/10/25 11:28:31;;;;;;;7.05;1.08;;;18.50;99.90;;;;;;5083490;28;20177;-70
2022/10/25 11:31:43;;;;;;;7.05;1.20;;;18.20;99.90;;;;;;5097446;28;20173;-70
2022/10/25 11:34:27;;;;;;;6.30;1.00;;;17.80;99.90;;;;;;5080587;28;20044;-70
2022/10/25 11:37:09;;;;;;;7.72;1.58;;;17.70;99.90;;;;;;5097984;28;20067;-70
2022/10/25 11:39:40;;;;;;;4.53;1.10;;;17.90;99.90;;;;;;5097741;28;20038;-71
2022/10/25 11:42:19;;;;;;;7.20;1.20;;;18.10;99.90;;;;;;5097871;28;20031;-70
2022/10/25 11:45:14;;;;;;;5.00;1.15;;;18.40;99.90;;;;;;5097801;28;20039;-70
2022/10/25 11:47:48;;;;;;;5.43;0.82;;;18.40;99.90;;;;;;5093722;28;20040;-70
2022/10/25 11:50:38;;;;;;;7.10;1.13;;;18.40;99.90;;;;;;5097833;28;20295;-69
2022/10/25 11:53:15;;;;;;;3.97;1.13;;;18.60;99.90;;;;;;5096905;28;20028;-71
2022/10/25 11:55:48;;;;;;;6.90;1.20;;;18.50;99.90;;;;;;5079960;28;20032;-72
2022/10/25 11:58:43;;;;;;;;;;;18.40;99.90;;;;;;5097123;28;20097;-70
2022/10/25 12:01:23;;;;;;;3.53;0.90;;;18.20;99.90;;;;;;5097597;28;20246;-70
2022/10/25 12:04:23;;;;;;;4.55;0.98;;;18.40;99.90;;;;;;5096536;28;20119;-71
2022/10/25 12:07:14;;;;;;;6.47;1.30;;;18.40;99.90;;;;;;5097438;28;20352;-66
2022/10/25 12:10:28;;;;;;;5.88;1.20;;;18.20;99.90;;;;;;5097391;28;20138;-71
2022/10/25 12:13:18;;;;;;;6.28;1.02;;;18.40;99.90;;;;;;5079553;28;20042;-70
2022/10/25 12:15:49;;;;;;;5.75;1.27;;;18.30;99.90;;;;;;5097100;28;20024;-70
2022/10/25 12:18:31;;;;;;;4.38;1.17;;;18.30;99.90;;;;;;5096328;28;20112;-71
2022/10/25 12:20:58;;;;;;;9.30;1.42;;;18.60;99.90;;;;;;5096936;28;20028;-71
2022/10/25 12:23:26;;;;;;;4.38;1.52;;;18.90;99.90;;;;;;5096915;28;20322;-71
2022/10/25 12:26:00;;;;;;;5.95;1.02;;;19.10;99.90;;;;;;5096805;28;20269;-70
2022/10/25 12:28:36;;;;;;;5.05;0.82;;;19.20;99.90;;;;;;5096907;28;20036;-70
2022/10/25 12:31:15;;;;;;;6.22;0.90;;;19.20;99.90;;;;;;5096242;28;20123;-71
2022/10/25 12:33:43;;;;;;;3.63;1.02;;;19.20;99.90;;;;;;5096241;28;20032;-70
2022/10/25 12:36:26;;;;;;;5.35;0.80;;;18.90;99.90;;;;;;5096952;28;20035;-70
2022/10/25 12:38:52;;;;;;;6.07;1.13;;;18.90;99.90;;;;;;5096129;28;20553;-69
2022/10/25 12:41:23;;;;;;;4.80;1.10;;;18.60;99.90;;;;;;5096702;28;20105;-71
2022/10/25 12:44:07;;;;;;;4.10;1.00;;;18.60;99.90;;;;;;5096412;28;20112;-71
2022/10/25 12:46:35;;;;;;;6.82;1.08;;;18.70;99.90;;;;;;5095850;28;20295;-71
2022/10/25 12:49:38;;;;;;;5.22;1.00;;;18.90;99.90;;;;;;5096768;28;20379;-70
2022/10/25 12:52:15;;;;;;;4.60;0.88;;;18.60;99.90;;;;;;5095878;28;20032;-70
2022/10/25 12:55:06;;;;;;;9.23;1.20;;;18.50;99.90;;;;;;5096610;28;20103;-71
2022/10/25 12:58:06;;;;;;;4.30;0.90;;;18.40;99.90;;;;;;5095752;28;20368;-70
2022/10/25 13:00:45;;;;;;;7.20;1.25;;;18.20;99.90;;;;;;5078736;28;20097;-69
2022/10/25 13:03:35;;;;;;;3.55;1.20;;;18.40;99.90;;;;;;5096514;28;20269;-70
2022/10/25 13:06:23;;;;;;;7.05;1.10;;;18.80;99.90;;;;;;5096571;28;20171;-71
2022/10/25 13:08:49;;;;;;;7.25;1.00;;;19.30;99.90;;;;;;5095819;28;20291;-67
2022/10/25 13:11:15;;;;;;;6.65;1.13;;;19.20;99.90;;;;;;5097138;28;20056;-71
2022/10/25 13:13:50;;;;;;;7.63;1.40;;;18.70;99.90;;;;;;5095905;28;20430;-67